sensor_id;sensor_type;location;lat;lon;timestamp;temperature;humidity
42979;DHT22;28616;44.746;19.678;2024-03-29T17:00:23;20.80;59.20
42979;DHT22;28616;44.746;19.678;2024-03-29T17:02:50;20.70;60.00
42979;DHT22;28616;44.746;19.678;2024-03-29T17:05:17;20.50;60.40
42979;DHT22;28616;44.746;19.678;2024-03-29T17:07:43;20.50;60.60
42979;DHT22;28616;44.746;19.678;2024-03-29T17:10:09;20.40;61.20
42979;DHT22;28616;44.746;19.678;2024-03-29T17:12:35;20.30;61.60
42979;DHT22;28616;44.746;19.678;2024-03-29T17:15:01;20.20;61.10
42979;DHT22;28616;44.746;19.678;2024-03-29T17:17:28;20.20;63.00
42979;DHT22;28616;44.746;19.678;2024-03-29T17:19:54;20.00;63.10
42979;DHT22;28616;44.746;19.678;2024-03-29T17:22:21;20.00;63.70
42979;DHT22;28616;44.746;19.678;2024-03-29T17:24:47;19.90;64.60
42979;DHT22;28616;44.746;19.678;2024-03-29T17:27:13;19.80;65.40
42979;DHT22;28616;44.746;19.678;2024-03-29T17:29:39;19.70;65.10
42979;DHT22;28616;44.746;19.678;2024-03-29T17:32:06;19.60;64.90
42979;DHT22;28616;44.746;19.678;2024-03-29T17:34:33;19.50;65.00
42979;DHT22;28616;44.746;19.678;2024-03-29T17:36:59;19.50;65.20
42979;DHT22;28616;44.746;19.678;2024-03-29T17:39:25;19.40;65.80
42979;DHT22;28616;44.746;19.678;2024-03-29T17:41:50;19.30;66.40
42979;DHT22;28616;44.746;19.678;2024-03-29T17:44:17;19.20;67.60
42979;DHT22;28616;44.746;19.678;2024-03-29T17:46:46;19.10;68.10
42979;DHT22;28616;44.746;19.678;2024-03-29T17:49:13;19.00;68.50
42979;DHT22;28616;44.746;19.678;2024-03-29T17:51:39;18.90;70.80
42979;DHT22;28616;44.746;19.678;2024-03-29T17:54:05;18.80;70.30
42979;DHT22;28616;44.746;19.678;2024-03-29T17:56:31;18.70;71.50
42979;DHT22;28616;44.746;19.678;2024-03-29T17:58:57;18.70;71.80
42979;DHT22;28616;44.746;19.678;2024-03-29T18:01:23;18.60;72.00
42979;DHT22;28616;44.746;19.678;2024-03-29T18:03:49;18.50;73.70
42979;DHT22;28616;44.746;19.678;2024-03-29T18:06:15;18.40;72.80
42979;DHT22;28616;44.746;19.678;2024-03-29T18:08:41;18.30;73.50
42979;DHT22;28616;44.746;19.678;2024-03-29T18:11:07;18.20;73.30
42979;DHT22;28616;44.746;19.678;2024-03-29T18:13:33;18.20;75.40
42979;DHT22;28616;44.746;19.678;2024-03-29T18:16:06;18.10;75.80
42979;DHT22;28616;44.746;19.678;2024-03-29T18:18:32;18.00;75.30
42979;DHT22;28616;44.746;19.678;2024-03-29T18:20:58;17.90;76.60
42979;DHT22;28616;44.746;19.678;2024-03-29T18:23:24;17.80;76.70
42979;DHT22;28616;44.746;19.678;2024-03-29T18:25:50;17.70;77.90
42979;DHT22;28616;44.746;19.678;2024-03-29T18:28:17;17.70;77.40
42979;DHT22;28616;44.746;19.678;2024-03-29T18:30:43;17.60;79.20
42979;DHT22;28616;44.746;19.678;2024-03-29T18:33:09;17.50;78.80
42979;DHT22;28616;44.746;19.678;2024-03-29T18:35:35;17.50;79.80
42979;DHT22;28616;44.746;19.678;2024-03-29T18:38:02;17.40;79.20
42979;DHT22;28616;44.746;19.678;2024-03-29T18:40:28;17.40;80.30
42979;DHT22;28616;44.746;19.678;2024-03-29T18:42:53;17.40;80.50
42979;DHT22;28616;44.746;19.678;2024-03-29T18:45:20;17.30;80.50
42979;DHT22;28616;44.746;19.678;2024-03-29T18:47:52;17.40;80.40
42979;DHT22;28616;44.746;19.678;2024-03-29T18:50:19;17.30;81.40
42979;DHT22;28616;44.746;19.678;2024-03-29T18:52:47;17.20;81.50
42979;DHT22;28616;44.746;19.678;2024-03-29T18:55:14;17.10;82.30
42979;DHT22;28616;44.746;19.678;2024-03-29T18:57:40;17.10;83.30
42979;DHT22;28616;44.746;19.678;2024-03-29T19:00:07;16.90;84.60
42979;DHT22;28616;44.746;19.678;2024-03-29T19:02:36;16.80;85.20
42979;DHT22;28616;44.746;19.678;2024-03-29T19:05:02;16.80;86.60
42979;DHT22;28616;44.746;19.678;2024-03-29T19:07:29;16.60;87.80
42979;DHT22;28616;44.746;19.678;2024-03-29T19:09:54;16.60;88.50
42979;DHT22;28616;44.746;19.678;2024-03-29T19:12:20;16.60;89.80
42979;DHT22;28616;44.746;19.678;2024-03-29T19:14:48;16.50;90.00
42979;DHT22;28616;44.746;19.678;2024-03-29T19:17:14;16.40;91.30
42979;DHT22;28616;44.746;19.678;2024-03-29T19:19:40;16.40;91.60
42979;DHT22;28616;44.746;19.678;2024-03-29T19:22:06;16.40;92.20
42979;DHT22;28616;44.746;19.678;2024-03-29T19:24:32;16.30;92.90
42979;DHT22;28616;44.746;19.678;2024-03-29T19:26:59;16.20;93.70
42979;DHT22;28616;44.746;19.678;2024-03-29T19:29:25;16.20;93.40
42979;DHT22;28616;44.746;19.678;2024-03-29T19:31:50;16.20;93.80
42979;DHT22;28616;44.746;19.678;2024-03-29T19:34:16;16.10;95.30
42979;DHT22;28616;44.746;19.678;2024-03-29T19:36:43;16.00;96.90
42979;DHT22;28616;44.746;19.678;2024-03-29T19:39:09;15.90;97.20
42979;DHT22;28616;44.746;19.678;2024-03-29T19:41:39;15.90;98.30
42979;DHT22;28616;44.746;19.678;2024-03-29T19:44:05;15.80;99.80
42979;DHT22;28616;44.746;19.678;2024-03-29T19:46:34;15.80;99.90
42979;DHT22;28616;44.746;19.678;2024-03-29T19:49:00;15.70;99.90
